createdAt,value
2019-03-31T00:01:48.874Z,56.00
2019-03-31T00:03:52.788Z,54.88
2019-03-31T00:05:56.693Z,52.25
2019-03-31T00:08:00.578Z,51.90
2019-03-31T00:10:06.762Z,51.70
2019-03-31T00:12:10.681Z,49.63
2019-03-31T00:14:14.537Z,52.83
2019-03-31T00:16:18.419Z,52.62
2019-03-31T00:18:22.357Z,52.65
2019-03-31T00:20:26.253Z,52.23
2019-03-31T00:22:30.123Z,57.85
2019-03-31T00:24:33.976Z,59.85
2019-03-31T00:26:38.200Z,60.08
2019-03-31T00:28:42.045Z,61.15
2019-03-31T00:30:46.022Z,57.78
2019-03-31T00:32:49.880Z,58.20
2019-03-31T00:34:53.700Z,59.73
2019-03-31T00:36:57.586Z,59.73
2019-03-31T00:39:01.534Z,58.65
2019-03-31T00:41:05.326Z,60.05
2019-03-31T00:43:09.262Z,62.10
2019-03-31T00:45:13.140Z,61.88
2019-03-31T00:47:16.957Z,59.95
2019-03-31T00:49:20.895Z,60.38
2019-03-31T00:51:24.731Z,60.15
2019-03-31T00:53:28.598Z,59.10
2019-03-31T00:55:32.491Z,60.92
2019-03-31T00:57:36.338Z,60.28
2019-03-31T00:59:40.215Z,62.48
2019-03-31T01:01:57.754Z,63.48
2019-03-31T01:04:01.605Z,62.40
2019-03-31T01:06:05.964Z,61.28
2019-03-31T01:08:10.156Z,62.62
2019-03-31T01:10:14.162Z,60.35
2019-03-31T01:12:18.952Z,61.48
2019-03-31T01:14:23.184Z,60.08
2019-03-31T01:16:27.348Z,59.27
2019-03-31T01:18:31.194Z,59.58
2019-03-31T01:20:35.105Z,59.45
2019-03-31T01:22:38.970Z,57.93
2019-03-31T01:24:42.829Z,56.70
2019-03-31T01:26:46.769Z,57.85
2019-03-31T01:28:50.846Z,56.75
2019-03-31T01:30:54.717Z,57.40
2019-03-31T01:32:58.590Z,54.53
2019-03-31T01:35:03.734Z,56.02
2019-03-31T01:37:07.602Z,55.88
2019-03-31T01:39:11.788Z,56.95
2019-03-31T01:41:15.617Z,55.45
2019-03-31T01:43:19.461Z,56.05
2019-03-31T01:45:23.679Z,55.45
2019-03-31T01:47:27.802Z,55.95
2019-03-31T01:49:31.745Z,55.28
2019-03-31T01:51:36.030Z,54.08
2019-03-31T01:53:39.829Z,57.65
2019-03-31T01:55:44.422Z,58.42
2019-03-31T01:57:48.365Z,58.15
2019-03-31T01:59:52.170Z,57.53
2019-03-31T02:02:03.998Z,57.30
2019-03-31T02:04:01.686Z,56.85
2019-03-31T02:06:05.581Z,55.73
2019-03-31T02:08:09.638Z,56.58
2019-03-31T02:10:13.679Z,57.23
2019-03-31T02:12:17.540Z,57.83
2019-03-31T02:14:21.402Z,56.40
2019-03-31T02:16:25.290Z,56.42
2019-03-31T02:18:29.175Z,54.63
2019-03-31T02:20:33.040Z,55.73
2019-03-31T02:22:36.929Z,55.67
2019-03-31T02:24:40.785Z,53.35
2019-03-31T02:26:44.610Z,53.95
2019-03-31T02:28:48.508Z,52.55
2019-03-31T02:30:52.381Z,50.17
2019-03-31T02:32:56.269Z,49.98
2019-03-31T02:35:00.497Z,47.75
2019-03-31T02:37:04.421Z,45.70
2019-03-31T02:39:08.551Z,46.25
2019-03-31T02:41:12.481Z,47.85
2019-03-31T02:43:16.325Z,47.73
2019-03-31T02:45:20.187Z,48.17
2019-03-31T02:47:24.088Z,46.37
2019-03-31T02:49:27.896Z,47.05
2019-03-31T02:51:31.922Z,47.15
2019-03-31T02:53:38.793Z,45.73
2019-03-31T02:55:44.513Z,43.85
2019-03-31T02:57:48.531Z,44.03
2019-03-31T02:59:53.427Z,43.87
2019-03-31T03:01:58.409Z,42.35
2019-03-31T03:04:03.072Z,43.28
2019-03-31T03:06:09.046Z,45.50
2019-03-31T03:08:14.728Z,42.73
2019-03-31T03:10:20.585Z,43.15
2019-03-31T03:12:25.615Z,43.13
2019-03-31T03:14:32.421Z,43.98
2019-03-31T03:16:36.336Z,42.62
2019-03-31T03:18:40.299Z,44.08
2019-03-31T03:20:44.127Z,42.65
2019-03-31T03:22:48.058Z,42.33
2019-03-31T03:24:51.918Z,40.92
2019-03-31T03:26:55.734Z,44.13
2019-03-31T03:28:59.683Z,44.05
2019-03-31T03:31:03.838Z,44.08
2019-03-31T03:33:15.537Z,44.63
2019-03-31T03:35:13.442Z,44.70
2019-03-31T03:37:17.307Z,46.90
2019-03-31T03:39:21.173Z,46.77
2019-03-31T03:41:25.052Z,44.45
2019-03-31T03:43:28.895Z,46.08
2019-03-31T03:45:32.777Z,45.85
2019-03-31T03:47:36.653Z,44.55
2019-03-31T03:49:40.474Z,43.35
2019-03-31T03:51:44.367Z,43.85
2019-03-31T03:53:49.951Z,44.00
2019-03-31T03:55:53.746Z,43.83
2019-03-31T03:57:57.622Z,43.73
2019-03-31T04:00:01.509Z,45.40
2019-03-31T04:02:05.356Z,42.83
2019-03-31T04:04:09.235Z,44.90
2019-03-31T04:06:13.123Z,45.08
2019-03-31T04:08:17.013Z,44.48
2019-03-31T04:10:43.652Z,45.43
2019-03-31T04:12:47.518Z,45.28
2019-03-31T04:14:51.414Z,45.58
2019-03-31T04:16:55.277Z,45.75
2019-03-31T04:18:59.130Z,46.23
2019-03-31T04:21:02.962Z,45.17
2019-03-31T04:23:06.843Z,45.73
2019-03-31T04:25:10.746Z,46.92
2019-03-31T04:27:18.690Z,46.55
2019-03-31T04:29:20.182Z,45.78
2019-03-31T04:31:23.989Z,44.67
2019-03-31T04:33:27.822Z,46.33
2019-03-31T04:35:31.699Z,44.80
2019-03-31T04:37:35.639Z,45.50
2019-03-31T04:39:39.481Z,45.20
2019-03-31T04:41:43.400Z,45.38
2019-03-31T04:43:47.306Z,44.88
2019-03-31T04:45:51.135Z,44.35
2019-03-31T04:47:55.007Z,43.92
2019-03-31T04:49:58.932Z,45.45
2019-03-31T04:52:02.786Z,45.78
2019-03-31T04:54:07.129Z,45.15
2019-03-31T04:56:11.101Z,45.12
2019-03-31T04:58:14.967Z,47.17
2019-03-31T05:00:18.841Z,47.70
2019-03-31T05:02:23.111Z,48.78
2019-03-31T05:04:26.945Z,49.80
2019-03-31T05:06:30.871Z,48.63
2019-03-31T05:08:34.785Z,50.25
2019-03-31T05:10:38.610Z,48.50
2019-03-31T05:12:42.444Z,46.30
2019-03-31T05:14:46.300Z,47.73
2019-03-31T05:16:50.130Z,47.95
2019-03-31T05:18:54.030Z,44.77
2019-03-31T05:20:57.856Z,46.58
2019-03-31T05:23:01.758Z,47.23
2019-03-31T05:25:06.415Z,47.95
2019-03-31T05:27:10.550Z,45.30
2019-03-31T05:29:14.409Z,46.60
2019-03-31T05:31:18.289Z,46.75
2019-03-31T05:33:22.128Z,47.53
2019-03-31T05:35:27.217Z,47.38
2019-03-31T05:37:31.123Z,46.92
2019-03-31T05:39:35.029Z,46.20
2019-03-31T05:41:38.866Z,47.53
2019-03-31T05:43:42.726Z,46.70
2019-03-31T05:45:46.709Z,46.18
2019-03-31T05:47:50.557Z,45.30
2019-03-31T05:49:54.403Z,47.45
2019-03-31T05:51:58.317Z,47.30
2019-03-31T05:54:02.170Z,44.75
2019-03-31T05:56:06.036Z,46.20
2019-03-31T05:58:09.946Z,45.65
2019-03-31T06:00:16.782Z,45.45
2019-03-31T06:02:20.686Z,47.17
2019-03-31T06:04:33.033Z,45.75
2019-03-31T06:06:30.086Z,46.35
2019-03-31T06:08:34.267Z,45.75
2019-03-31T06:10:38.106Z,45.45
2019-03-31T06:12:41.964Z,45.73
2019-03-31T06:14:45.862Z,45.85
2019-03-31T06:16:49.719Z,42.25
2019-03-31T06:18:53.583Z,42.98
2019-03-31T06:20:57.482Z,43.58
2019-03-31T06:23:01.334Z,46.00
2019-03-31T06:25:06.804Z,48.30
2019-03-31T06:27:10.715Z,49.30
2019-03-31T06:29:14.538Z,50.73
2019-03-31T06:31:18.438Z,52.80
2019-03-31T06:33:22.301Z,50.75
2019-03-31T06:35:26.241Z,52.13
2019-03-31T06:37:30.071Z,45.60
2019-03-31T06:39:34.397Z,45.10
2019-03-31T06:41:38.584Z,43.75
2019-03-31T06:43:42.450Z,41.98
2019-03-31T06:45:46.243Z,43.05
2019-03-31T06:47:50.514Z,39.23
2019-03-31T06:49:54.361Z,38.33
2019-03-31T06:51:58.252Z,35.83
2019-03-31T06:54:02.150Z,35.98
2019-03-31T06:56:06.089Z,34.53
2019-03-31T06:58:09.991Z,35.40
2019-03-31T07:00:14.337Z,34.80
2019-03-31T07:02:18.208Z,34.65
2019-03-31T07:04:22.133Z,35.58
2019-03-31T07:06:25.965Z,35.00
2019-03-31T07:08:29.790Z,37.00
2019-03-31T07:10:33.799Z,37.10
2019-03-31T07:12:37.924Z,38.98
2019-03-31T07:14:41.784Z,34.95
2019-03-31T07:16:45.670Z,34.27
2019-03-31T07:18:49.546Z,33.88
2019-03-31T07:20:53.398Z,34.85
2019-03-31T07:22:57.301Z,33.63
2019-03-31T07:25:01.280Z,33.20
2019-03-31T07:27:05.086Z,32.45
2019-03-31T07:29:08.999Z,33.88
2019-03-31T07:31:12.931Z,32.67
2019-03-31T07:33:16.758Z,31.20
2019-03-31T07:35:20.762Z,28.55
2019-03-31T07:37:24.875Z,28.65
2019-03-31T07:39:28.853Z,29.98
2019-03-31T07:41:32.780Z,27.45
2019-03-31T07:43:36.722Z,25.45
2019-03-31T07:45:40.657Z,25.32
2019-03-31T07:47:45.359Z,26.05
2019-03-31T07:49:49.316Z,25.85
2019-03-31T07:51:53.221Z,26.65
2019-03-31T07:53:57.119Z,25.68
2019-03-31T07:56:01.376Z,26.50
2019-03-31T07:58:05.266Z,24.67
2019-03-31T08:00:18.050Z,26.12
2019-03-31T08:02:21.902Z,26.80
2019-03-31T08:04:25.813Z,26.20
2019-03-31T08:06:29.728Z,27.20
2019-03-31T08:08:33.675Z,28.60
2019-03-31T08:10:39.034Z,28.07
2019-03-31T08:12:42.921Z,28.02
2019-03-31T08:14:46.808Z,28.42
2019-03-31T08:16:50.633Z,28.00
2019-03-31T08:18:54.616Z,27.40
2019-03-31T08:20:58.498Z,29.02
2019-03-31T08:23:02.386Z,28.05
2019-03-31T08:25:07.191Z,29.87
2019-03-31T08:27:13.240Z,30.02
2019-03-31T08:29:17.136Z,29.87
2019-03-31T08:31:21.001Z,29.40
2019-03-31T08:33:24.886Z,29.02
2019-03-31T08:35:28.894Z,28.80
2019-03-31T08:37:32.731Z,29.82
2019-03-31T08:39:36.587Z,28.92
2019-03-31T08:41:40.479Z,29.15
2019-03-31T08:43:44.386Z,29.77
2019-03-31T08:45:48.294Z,30.02
2019-03-31T08:47:52.166Z,30.35
2019-03-31T08:49:56.035Z,30.35
2019-03-31T08:51:59.913Z,29.75
2019-03-31T08:54:04.013Z,30.23
2019-03-31T08:56:10.705Z,30.75
2019-03-31T08:58:14.547Z,30.97
2019-03-31T09:00:32.752Z,30.00
2019-03-31T09:02:36.628Z,31.55
2019-03-31T09:04:40.475Z,32.33
2019-03-31T09:06:44.313Z,31.12
2019-03-31T09:08:48.234Z,31.60
2019-03-31T09:10:52.145Z,32.03
2019-03-31T09:12:56.014Z,31.27
2019-03-31T09:14:59.853Z,31.82
2019-03-31T09:17:03.758Z,29.75
2019-03-31T09:19:07.692Z,31.80
2019-03-31T09:21:11.594Z,29.67
2019-03-31T09:23:15.450Z,30.92
2019-03-31T09:25:19.309Z,31.90
2019-03-31T09:27:23.274Z,30.50
2019-03-31T09:29:27.152Z,32.90
2019-03-31T09:31:30.997Z,32.15
2019-03-31T09:33:34.898Z,31.07
2019-03-31T09:35:38.771Z,32.85
2019-03-31T09:37:42.589Z,32.95
2019-03-31T09:39:46.497Z,31.40
2019-03-31T09:41:50.391Z,32.80
2019-03-31T09:43:54.296Z,31.68
2019-03-31T09:46:00.011Z,31.52
2019-03-31T09:48:03.898Z,31.82
2019-03-31T09:50:10.871Z,32.60
2019-03-31T09:52:14.742Z,32.67
2019-03-31T09:54:18.969Z,32.08
2019-03-31T09:56:22.810Z,31.95
2019-03-31T09:58:26.689Z,32.75
2019-03-31T10:00:50.316Z,32.78
2019-03-31T10:02:54.291Z,31.68
2019-03-31T10:04:58.169Z,30.20
2019-03-31T10:07:02.378Z,32.80
2019-03-31T10:09:07.460Z,31.33
2019-03-31T10:11:11.311Z,30.65
2019-03-31T10:13:17.203Z,31.35
2019-03-31T10:15:21.031Z,31.42
2019-03-31T10:17:24.866Z,30.77
2019-03-31T10:19:28.695Z,29.92
2019-03-31T10:21:32.574Z,28.62
2019-03-31T10:23:36.475Z,29.63
2019-03-31T10:25:40.412Z,28.35
2019-03-31T10:27:44.289Z,28.85
2019-03-31T10:29:48.133Z,28.60
2019-03-31T10:31:55.137Z,29.15
2019-03-31T10:33:58.999Z,27.22
2019-03-31T10:36:02.889Z,29.90
2019-03-31T10:38:07.272Z,30.80
2019-03-31T10:40:13.863Z,29.77
2019-03-31T10:42:17.729Z,30.70
2019-03-31T10:44:21.633Z,30.20
2019-03-31T10:46:25.465Z,30.35
2019-03-31T10:48:29.336Z,32.40
2019-03-31T10:50:33.231Z,31.82
2019-03-31T10:52:37.120Z,30.85
2019-03-31T10:54:41.003Z,31.15
2019-03-31T10:56:44.880Z,30.00
2019-03-31T10:58:49.019Z,31.52
2019-03-31T11:00:52.889Z,30.15
2019-03-31T11:02:56.723Z,29.65
2019-03-31T11:05:07.163Z,30.75
2019-03-31T11:07:11.071Z,31.17
2019-03-31T11:09:14.981Z,30.97
2019-03-31T11:11:18.925Z,30.45
2019-03-31T11:13:22.797Z,29.77
2019-03-31T11:15:26.645Z,27.80
2019-03-31T11:17:30.536Z,28.98
2019-03-31T11:19:34.427Z,29.98
2019-03-31T11:21:40.500Z,31.15
2019-03-31T11:23:44.525Z,29.50
2019-03-31T11:25:48.428Z,28.15
2019-03-31T11:27:52.297Z,27.45
2019-03-31T11:29:56.338Z,29.45
2019-03-31T11:32:00.209Z,29.20
2019-03-31T11:34:04.021Z,27.13
2019-03-31T11:36:07.937Z,25.97
2019-03-31T11:38:11.787Z,26.60
2019-03-31T11:40:15.627Z,27.90
2019-03-31T11:42:19.611Z,27.67
2019-03-31T11:44:23.445Z,28.80
2019-03-31T11:46:27.362Z,27.67
2019-03-31T11:48:31.313Z,29.42
2019-03-31T11:50:35.229Z,27.00
2019-03-31T11:52:39.018Z,27.27
2019-03-31T11:54:45.813Z,27.62
2019-03-31T11:56:48.461Z,25.90
2019-03-31T11:58:52.347Z,26.33
2019-03-31T12:00:56.603Z,26.07
2019-03-31T12:03:00.428Z,25.85
2019-03-31T12:05:06.325Z,27.32
2019-03-31T12:07:10.306Z,26.68
2019-03-31T12:09:14.182Z,26.30
2019-03-31T12:11:18.218Z,20.82
2019-03-31T12:13:22.058Z,21.50
2019-03-31T12:15:25.943Z,22.10
2019-03-31T12:17:29.852Z,22.73
2019-03-31T12:19:33.838Z,22.58
2019-03-31T12:21:37.721Z,21.10
2019-03-31T12:23:41.650Z,21.25
2019-03-31T12:25:45.588Z,19.40
2019-03-31T12:27:49.550Z,19.75
2019-03-31T12:29:53.348Z,23.55
2019-03-31T12:31:57.348Z,21.77
2019-03-31T12:34:01.229Z,20.50
2019-03-31T12:36:06.303Z,22.52
2019-03-31T12:38:10.218Z,20.35
2019-03-31T12:40:17.031Z,24.18
2019-03-31T12:42:22.617Z,24.63
2019-03-31T12:44:26.555Z,22.73
2019-03-31T12:46:30.457Z,19.30
2019-03-31T12:48:34.302Z,18.50
2019-03-31T12:50:38.209Z,18.52
2019-03-31T12:52:46.892Z,19.10
2019-03-31T12:54:47.568Z,18.17
2019-03-31T12:56:51.510Z,18.62
2019-03-31T12:58:55.551Z,18.52
2019-03-31T13:00:59.399Z,19.87
2019-03-31T13:03:04.810Z,22.22
2019-03-31T13:05:08.945Z,22.70
2019-03-31T13:07:14.871Z,22.25
2019-03-31T13:09:18.487Z,22.32
2019-03-31T13:11:22.458Z,21.77
2019-03-31T13:13:26.304Z,23.07
2019-03-31T13:15:30.223Z,23.52
2019-03-31T13:17:34.055Z,20.27
2019-03-31T13:19:37.893Z,19.00
2019-03-31T13:21:41.812Z,18.42
2019-03-31T13:23:45.652Z,19.52
2019-03-31T13:25:49.586Z,20.12
2019-03-31T13:27:53.442Z,19.60
2019-03-31T13:29:57.338Z,19.07
2019-03-31T13:32:01.249Z,18.50
2019-03-31T13:34:05.111Z,17.32
2019-03-31T13:36:08.976Z,17.95
2019-03-31T13:38:12.893Z,17.40
2019-03-31T13:40:16.742Z,18.15
2019-03-31T13:42:20.562Z,17.15
2019-03-31T13:44:24.494Z,19.12
2019-03-31T13:46:28.503Z,18.37
2019-03-31T13:48:32.356Z,17.85
2019-03-31T13:50:36.291Z,17.52
2019-03-31T13:52:40.124Z,16.35
2019-03-31T13:54:44.418Z,14.55
2019-03-31T13:56:49.991Z,16.35
2019-03-31T13:58:53.812Z,15.23
2019-03-31T14:00:57.652Z,14.65
2019-03-31T14:03:01.590Z,16.02
2019-03-31T14:05:06.548Z,14.10
2019-03-31T14:07:10.375Z,16.52
2019-03-31T14:09:14.322Z,30.23
2019-03-31T14:11:21.475Z,32.38
2019-03-31T14:13:23.704Z,19.37
2019-03-31T14:15:27.600Z,28.23
2019-03-31T14:17:31.441Z,20.20
2019-03-31T14:19:35.282Z,16.55
2019-03-31T14:21:40.175Z,19.42
2019-03-31T14:23:44.283Z,43.68
2019-03-31T14:25:48.191Z,57.27
2019-03-31T14:27:52.090Z,18.40
2019-03-31T14:29:55.927Z,17.92
2019-03-31T14:31:59.835Z,18.45
2019-03-31T14:34:03.722Z,18.30
2019-03-31T14:36:07.584Z,17.80
2019-03-31T14:38:11.553Z,18.07
2019-03-31T14:40:15.389Z,17.12
2019-03-31T14:42:19.250Z,16.85
2019-03-31T14:44:23.114Z,27.67
2019-03-31T14:46:26.984Z,23.05
2019-03-31T14:48:30.848Z,19.02
2019-03-31T14:50:36.461Z,19.98
2019-03-31T14:52:40.331Z,19.23
2019-03-31T14:54:44.186Z,19.25
2019-03-31T14:56:48.134Z,20.65
2019-03-31T14:58:52.026Z,20.45
2019-03-31T15:00:55.902Z,22.60
2019-03-31T15:02:59.812Z,20.30
2019-03-31T15:05:04.378Z,19.98
2019-03-31T15:07:08.339Z,16.75
2019-03-31T15:09:12.219Z,20.02
2019-03-31T15:11:16.072Z,19.57
2019-03-31T15:13:20.294Z,18.30
2019-03-31T15:15:24.245Z,19.30
2019-03-31T15:17:28.106Z,21.57
2019-03-31T15:19:31.979Z,19.57
2019-03-31T15:21:44.142Z,21.05
2019-03-31T15:23:41.465Z,21.80
2019-03-31T15:25:45.355Z,42.58
2019-03-31T15:27:49.347Z,34.90
2019-03-31T15:29:53.484Z,22.58
2019-03-31T15:31:57.355Z,21.15
2019-03-31T15:34:01.273Z,24.82
2019-03-31T15:36:05.164Z,18.98
2019-03-31T15:38:08.966Z,22.73
2019-03-31T15:40:13.126Z,17.25
2019-03-31T15:42:17.030Z,16.40
2019-03-31T15:44:20.914Z,20.43
2019-03-31T15:46:25.007Z,25.52
2019-03-31T15:48:29.126Z,20.65
2019-03-31T15:50:32.995Z,15.50
2019-03-31T15:52:36.915Z,16.42
2019-03-31T15:54:40.846Z,15.23
2019-03-31T15:56:44.727Z,19.75
2019-03-31T15:58:48.607Z,17.70
2019-03-31T16:00:52.473Z,17.70
2019-03-31T16:02:57.944Z,18.20
2019-03-31T16:05:07.154Z,18.30
2019-03-31T16:07:11.034Z,20.02
2019-03-31T16:09:23.454Z,19.32
2019-03-31T16:11:20.496Z,18.12
2019-03-31T16:13:24.340Z,17.45
2019-03-31T16:15:28.254Z,14.90
2019-03-31T16:17:32.144Z,17.23
2019-03-31T16:19:36.016Z,16.32
2019-03-31T16:21:39.987Z,16.37
2019-03-31T16:23:43.970Z,17.95
2019-03-31T16:25:49.418Z,17.17
2019-03-31T16:27:53.296Z,17.52
2019-03-31T16:29:57.174Z,16.50
2019-03-31T16:32:03.816Z,17.82
2019-03-31T16:34:10.837Z,18.12
2019-03-31T16:36:19.080Z,19.55
2019-03-31T16:38:25.662Z,16.25
2019-03-31T16:40:30.140Z,18.27
2019-03-31T16:42:37.219Z,61.25
2019-03-31T16:44:57.463Z,27.10
2019-03-31T16:46:50.300Z,18.87
2019-03-31T16:48:55.184Z,18.48
2019-03-31T16:50:59.059Z,16.55
2019-03-31T16:53:02.948Z,17.52
2019-03-31T16:55:07.219Z,18.70
2019-03-31T16:57:11.088Z,18.65
2019-03-31T16:59:15.025Z,16.12
2019-03-31T17:01:18.880Z,14.33
2019-03-31T17:03:22.719Z,18.65
2019-03-31T17:05:26.587Z,23.40
2019-03-31T17:07:30.533Z,20.85
2019-03-31T17:09:34.555Z,21.25
2019-03-31T17:11:38.402Z,20.00
2019-03-31T17:13:42.222Z,18.73
2019-03-31T17:15:46.135Z,17.23
2019-03-31T17:17:50.102Z,14.50
2019-03-31T17:19:53.964Z,14.95
2019-03-31T17:21:59.796Z,17.85
2019-03-31T17:24:03.539Z,18.45
2019-03-31T17:26:07.438Z,19.45
2019-03-31T17:28:11.239Z,19.85
2019-03-31T17:30:15.267Z,18.37
2019-03-31T17:32:19.169Z,19.80
2019-03-31T17:34:23.131Z,20.02
2019-03-31T17:36:26.982Z,20.35
2019-03-31T17:38:30.842Z,18.77
2019-03-31T17:40:34.660Z,19.00
2019-03-31T17:42:38.585Z,19.85
2019-03-31T17:44:42.430Z,20.50
2019-03-31T17:46:46.273Z,21.17
2019-03-31T17:48:50.206Z,19.02
2019-03-31T17:50:54.095Z,21.20
2019-03-31T17:52:58.007Z,18.30
2019-03-31T17:55:01.867Z,16.67
2019-03-31T17:57:05.759Z,20.40
2019-03-31T17:59:09.634Z,18.90
2019-03-31T18:01:13.490Z,22.98
2019-03-31T18:03:17.395Z,20.88
2019-03-31T18:05:21.196Z,19.75
2019-03-31T18:07:25.186Z,18.57
2019-03-31T18:09:29.059Z,17.75
2019-03-31T18:11:32.934Z,18.52
2019-03-31T18:13:36.732Z,16.35
2019-03-31T18:15:40.651Z,16.00
2019-03-31T18:17:44.825Z,17.48
2019-03-31T18:19:48.930Z,18.95
2019-03-31T18:21:52.865Z,16.67
2019-03-31T18:23:56.731Z,17.30
2019-03-31T18:26:00.667Z,18.57
2019-03-31T18:28:04.630Z,21.65
2019-03-31T18:30:09.170Z,19.80
2019-03-31T18:32:13.053Z,23.18
2019-03-31T18:34:16.935Z,19.73
2019-03-31T18:36:20.874Z,20.02
2019-03-31T18:38:24.802Z,21.77
2019-03-31T18:40:34.877Z,19.12
2019-03-31T18:42:34.244Z,16.25
2019-03-31T18:44:38.086Z,18.87
2019-03-31T18:46:42.329Z,23.65
2019-03-31T18:48:46.222Z,18.87
2019-03-31T18:50:50.059Z,20.02
2019-03-31T18:52:53.970Z,20.62
2019-03-31T18:54:59.421Z,20.00
2019-03-31T18:57:07.657Z,19.07
2019-03-31T18:59:18.619Z,18.07
2019-03-31T19:01:36.075Z,18.50
2019-03-31T19:03:53.583Z,17.70
2019-03-31T19:06:08.107Z,18.55
2019-03-31T19:08:19.423Z,18.48
2019-03-31T19:10:25.252Z,31.40
2019-03-31T19:12:30.726Z,33.05
2019-03-31T19:14:36.285Z,22.55
2019-03-31T19:16:41.704Z,25.15
2019-03-31T19:18:53.166Z,24.80
2019-03-31T19:21:11.429Z,25.25
2019-03-31T19:23:11.690Z,24.77
2019-03-31T19:25:22.882Z,21.93
2019-03-31T19:27:44.815Z,21.20
2019-03-31T19:30:02.530Z,30.30
2019-03-31T19:32:24.209Z,31.00
2019-03-31T19:34:41.673Z,34.67
2019-03-31T19:37:03.515Z,40.40
2019-03-31T19:39:16.998Z,37.78
2019-03-31T19:41:28.477Z,32.10
2019-03-31T19:43:36.597Z,24.60
2019-03-31T19:45:47.817Z,24.15
2019-03-31T19:48:01.754Z,24.23
2019-03-31T19:50:14.402Z,24.77
2019-03-31T19:52:19.805Z,26.75
2019-03-31T19:54:37.215Z,23.60
2019-03-31T19:56:57.694Z,21.33
2019-03-31T19:59:12.656Z,20.30
2019-03-31T20:01:24.389Z,23.25
2019-03-31T20:03:32.526Z,27.22
2019-03-31T20:05:43.743Z,30.97
2019-03-31T20:07:49.169Z,23.55
2019-03-31T20:10:09.560Z,22.10
2019-03-31T20:12:18.046Z,21.95
2019-03-31T20:14:39.954Z,21.87
2019-03-31T20:16:45.363Z,18.57
2019-03-31T20:18:50.871Z,16.60
2019-03-31T20:20:56.289Z,17.30
2019-03-31T20:23:17.905Z,21.23
2019-03-31T20:25:28.806Z,19.40
2019-03-31T20:27:36.670Z,19.12
2019-03-31T20:29:44.694Z,16.75
2019-03-31T20:31:50.184Z,16.80
2019-03-31T20:33:55.758Z,15.35
2019-03-31T20:36:17.647Z,15.03
2019-03-31T20:38:25.786Z,12.10
2019-03-31T20:40:33.979Z,12.90
2019-03-31T20:42:48.674Z,14.07
2019-03-31T20:44:52.514Z,14.45
2019-03-31T20:46:56.365Z,15.32
2019-03-31T20:49:00.621Z,14.15
2019-03-31T20:51:04.474Z,15.85
2019-03-31T20:53:08.375Z,15.35
2019-03-31T20:55:16.693Z,16.37
2019-03-31T20:57:17.834Z,14.28
2019-03-31T20:59:21.745Z,15.98
2019-03-31T21:01:25.588Z,15.93
2019-03-31T21:03:29.467Z,14.33
2019-03-31T21:05:33.403Z,13.88
2019-03-31T21:07:37.223Z,14.80
2019-03-31T21:09:45.181Z,14.50
2019-03-31T21:11:46.657Z,14.43
2019-03-31T21:13:50.562Z,13.88
2019-03-31T21:15:54.529Z,14.07
2019-03-31T21:17:58.338Z,13.18
2019-03-31T21:20:02.172Z,13.43
2019-03-31T21:22:06.027Z,13.22
2019-03-31T21:24:09.928Z,14.00
2019-03-31T21:26:13.826Z,13.65
2019-03-31T21:28:17.663Z,13.28
2019-03-31T21:30:21.522Z,14.23
2019-03-31T21:32:25.432Z,13.38
2019-03-31T21:34:29.293Z,12.65
2019-03-31T21:36:33.158Z,12.30
2019-03-31T21:38:37.005Z,12.65
2019-03-31T21:40:40.889Z,12.15
2019-03-31T21:42:44.721Z,11.73
2019-03-31T21:44:48.590Z,10.25
2019-03-31T21:46:55.827Z,12.95
2019-03-31T21:48:58.295Z,15.75
2019-03-31T21:51:02.187Z,10.03
2019-03-31T21:53:06.122Z,9.48
2019-03-31T21:55:10.409Z,11.18
2019-03-31T21:57:14.261Z,9.00
2019-03-31T21:59:18.178Z,8.83
2019-03-31T22:01:22.578Z,9.13
2019-03-31T22:03:26.566Z,8.03
2019-03-31T22:05:30.426Z,8.43
2019-03-31T22:07:34.283Z,7.83
2019-03-31T22:09:38.271Z,9.08
2019-03-31T22:11:42.172Z,6.85
2019-03-31T22:13:46.041Z,10.68
2019-03-31T22:15:49.939Z,9.75
2019-03-31T22:17:53.813Z,10.95
2019-03-31T22:20:00.523Z,10.58
2019-03-31T22:22:08.619Z,8.83
2019-03-31T22:24:12.795Z,9.53
2019-03-31T22:26:19.442Z,7.70
2019-03-31T22:28:22.171Z,8.20
2019-03-31T22:30:26.043Z,8.18
2019-03-31T22:32:29.925Z,9.28
2019-03-31T22:34:36.496Z,7.15
2019-03-31T22:36:40.339Z,7.72
2019-03-31T22:38:44.216Z,8.68
2019-03-31T22:40:48.090Z,8.68
2019-03-31T22:42:52.021Z,11.20
2019-03-31T22:44:55.855Z,7.72
2019-03-31T22:46:59.750Z,7.12
2019-03-31T22:49:03.623Z,7.37
2019-03-31T22:51:07.488Z,7.87
2019-03-31T22:53:11.330Z,6.92
2019-03-31T22:55:15.194Z,7.15
2019-03-31T22:57:19.084Z,7.20
2019-03-31T22:59:22.934Z,6.97
2019-03-31T23:01:28.248Z,7.67
2019-03-31T23:03:32.188Z,7.15
2019-03-31T23:05:39.005Z,7.22
2019-03-31T23:07:42.880Z,7.03
2019-03-31T23:09:46.797Z,7.55
2019-03-31T23:11:50.634Z,7.08
2019-03-31T23:13:54.504Z,7.30
2019-03-31T23:15:58.413Z,7.22
2019-03-31T23:18:02.207Z,7.35
2019-03-31T23:20:07.591Z,7.00
2019-03-31T23:22:11.457Z,6.30
2019-03-31T23:24:15.353Z,6.22
2019-03-31T23:26:19.657Z,6.25
2019-03-31T23:28:23.589Z,5.60
2019-03-31T23:30:27.451Z,5.92
2019-03-31T23:32:31.721Z,5.83
2019-03-31T23:34:35.595Z,4.90
2019-03-31T23:36:39.499Z,5.20
2019-03-31T23:38:43.851Z,5.35
2019-03-31T23:40:47.968Z,5.12
2019-03-31T23:42:52.490Z,5.90
2019-03-31T23:44:56.285Z,5.03
2019-03-31T23:47:00.249Z,5.22
2019-03-31T23:49:04.127Z,5.08
2019-03-31T23:51:08.013Z,4.97
2019-03-31T23:53:11.850Z,5.10
2019-03-31T23:55:15.769Z,4.70
2019-03-31T23:57:21.246Z,4.70
2019-03-31T23:59:25.675Z,4.65
